createdAt,value
2018-09-27T00:00:05.327Z,4.67
2018-09-27T00:02:39.612Z,4.80
2018-09-27T00:05:11.875Z,4.30
2018-09-27T00:07:43.183Z,4.00
2018-09-27T00:10:12.188Z,4.37
2018-09-27T00:12:41.528Z,4.80
2018-09-27T00:15:10.920Z,4.30
2018-09-27T00:17:41.211Z,5.10
2018-09-27T00:20:19.348Z,3.73
2018-09-27T00:22:48.630Z,4.50
2018-09-27T00:25:19.456Z,4.50
2018-09-27T00:27:48.716Z,5.03
2018-09-27T00:30:18.177Z,4.17
2018-09-27T00:32:47.105Z,3.90
2018-09-27T00:35:16.164Z,4.53
2018-09-27T00:37:44.911Z,4.50
2018-09-27T00:40:14.862Z,3.60
2018-09-27T00:42:44.309Z,3.97
2018-09-27T00:45:14.348Z,3.93
2018-09-27T00:47:43.525Z,4.30
2018-09-27T00:50:13.014Z,3.70
2018-09-27T00:52:43.972Z,4.87
2018-09-27T00:55:13.154Z,4.47
2018-09-27T00:57:43.200Z,4.97
2018-09-27T01:00:12.556Z,3.53
2018-09-27T01:02:41.381Z,4.30
2018-09-27T01:05:12.488Z,4.20
2018-09-27T01:07:42.596Z,4.30
2018-09-27T01:10:12.587Z,4.27
2018-09-27T01:12:42.775Z,4.07
2018-09-27T01:15:12.922Z,3.80
2018-09-27T01:17:42.308Z,4.00
2018-09-27T01:20:12.409Z,4.13
2018-09-27T01:22:44.295Z,4.57
2018-09-27T01:25:13.376Z,4.03
2018-09-27T01:27:42.404Z,4.33
2018-09-27T01:30:11.716Z,3.30
2018-09-27T01:32:41.254Z,4.30
2018-09-27T01:35:10.680Z,4.37
2018-09-27T01:37:39.133Z,5.03
2018-09-27T01:40:07.698Z,4.83
2018-09-27T01:42:36.868Z,5.30
2018-09-27T01:45:05.905Z,4.60
2018-09-27T01:47:34.339Z,4.57
2018-09-27T01:50:03.930Z,5.37
2018-09-27T01:52:33.628Z,4.00
2018-09-27T01:55:03.799Z,4.10
2018-09-27T01:57:32.938Z,4.43
2018-09-27T02:00:02.659Z,4.63
2018-09-27T02:02:32.937Z,4.67
2018-09-27T02:05:02.824Z,4.90
2018-09-27T02:07:32.833Z,4.70
2018-09-27T02:10:02.259Z,4.10
2018-09-27T02:12:36.163Z,4.70
2018-09-27T02:15:06.677Z,5.37
2018-09-27T02:17:36.555Z,3.80
2018-09-27T02:20:05.216Z,4.13
2018-09-27T02:22:34.632Z,4.93
2018-09-27T02:25:03.919Z,4.53
2018-09-27T02:27:33.110Z,4.13
2018-09-27T02:30:02.540Z,3.90
2018-09-27T02:32:31.707Z,4.10
2018-09-27T02:35:01.040Z,4.47
2018-09-27T02:37:30.823Z,4.80
2018-09-27T02:40:00.355Z,3.70
2018-09-27T02:42:30.282Z,5.33
2018-09-27T02:45:00.419Z,5.20
2018-09-27T02:47:29.946Z,4.77
2018-09-27T02:49:59.948Z,5.07
2018-09-27T02:52:29.520Z,4.90
2018-09-27T02:54:58.559Z,3.70
2018-09-27T02:57:27.660Z,5.10
2018-09-27T02:59:56.353Z,4.90
2018-09-27T03:02:26.707Z,4.53
2018-09-27T03:04:55.488Z,5.60
2018-09-27T03:07:24.915Z,4.17
2018-09-27T03:09:53.944Z,5.37
2018-09-27T03:12:26.144Z,4.77
2018-09-27T03:14:56.756Z,5.77
2018-09-27T03:17:26.547Z,5.10
2018-09-27T03:19:55.705Z,5.00
2018-09-27T03:22:27.107Z,5.30
2018-09-27T03:24:56.688Z,4.90
2018-09-27T03:27:26.820Z,4.30
2018-09-27T03:29:55.368Z,4.60
2018-09-27T03:32:24.466Z,4.10
2018-09-27T03:34:54.640Z,4.50
2018-09-27T03:37:25.034Z,4.13
2018-09-27T03:40:02.380Z,3.87
2018-09-27T03:42:31.241Z,4.50
2018-09-27T03:45:00.455Z,4.60
2018-09-27T03:47:29.296Z,4.40
2018-09-27T03:49:58.951Z,3.93
2018-09-27T03:52:28.434Z,4.60
2018-09-27T03:54:58.041Z,4.83
2018-09-27T03:57:27.458Z,4.40
2018-09-27T03:59:57.544Z,4.87
2018-09-27T04:02:27.166Z,4.53
2018-09-27T04:04:56.243Z,5.17
2018-09-27T04:07:24.950Z,4.53
2018-09-27T04:09:53.768Z,4.30
2018-09-27T04:12:23.859Z,4.33
2018-09-27T04:14:53.417Z,4.33
2018-09-27T04:17:22.120Z,4.93
2018-09-27T04:19:51.470Z,5.70
2018-09-27T04:22:21.007Z,4.70
2018-09-27T04:24:50.198Z,4.90
2018-09-27T04:27:21.227Z,5.03
2018-09-27T04:29:53.980Z,4.67
2018-09-27T04:32:22.792Z,4.40
2018-09-27T04:34:51.442Z,4.93
2018-09-27T04:37:20.980Z,4.60
2018-09-27T04:39:49.610Z,4.33
2018-09-27T04:42:21.056Z,5.10
2018-09-27T04:44:50.660Z,4.80
2018-09-27T04:47:21.263Z,5.43
2018-09-27T04:49:51.956Z,4.80
2018-09-27T04:52:22.456Z,5.40
2018-09-27T04:54:51.953Z,5.30
2018-09-27T04:57:22.446Z,5.47
2018-09-27T04:59:51.173Z,4.50
2018-09-27T05:02:21.239Z,4.83
2018-09-27T05:04:51.171Z,5.73
2018-09-27T05:07:20.144Z,4.33
2018-09-27T05:09:49.417Z,5.53
2018-09-27T05:12:18.515Z,5.17
2018-09-27T05:14:47.567Z,4.30
2018-09-27T05:17:17.021Z,5.17
2018-09-27T05:19:45.921Z,5.10
2018-09-27T05:22:15.490Z,4.70
2018-09-27T05:24:44.761Z,4.90
2018-09-27T05:27:14.272Z,4.97
2018-09-27T05:29:44.947Z,5.27
2018-09-27T05:32:15.327Z,6.57
2018-09-27T05:34:43.995Z,5.43
2018-09-27T05:37:12.471Z,4.90
2018-09-27T05:39:41.336Z,5.70
2018-09-27T05:42:12.061Z,5.67
2018-09-27T05:44:41.312Z,5.47
2018-09-27T05:47:10.740Z,4.93
2018-09-27T05:49:39.366Z,4.97
2018-09-27T05:52:09.492Z,5.10
2018-09-27T05:54:38.512Z,4.90
2018-09-27T05:57:08.548Z,5.07
2018-09-27T05:59:37.073Z,5.67
2018-09-27T06:02:07.007Z,5.23
2018-09-27T06:04:35.816Z,5.37
2018-09-27T06:07:05.195Z,5.73
2018-09-27T06:09:35.360Z,5.90
2018-09-27T06:12:05.250Z,5.93
2018-09-27T06:14:35.012Z,6.13
2018-09-27T06:17:05.952Z,6.00
2018-09-27T06:19:35.162Z,5.60
2018-09-27T06:22:04.196Z,5.20
2018-09-27T06:24:33.659Z,6.30
2018-09-27T06:27:03.358Z,5.40
2018-09-27T06:29:33.635Z,6.17
2018-09-27T06:32:02.395Z,5.40
2018-09-27T06:34:32.564Z,5.97
2018-09-27T06:37:02.123Z,4.70
2018-09-27T06:39:30.660Z,6.23
2018-09-27T06:42:01.459Z,5.50
2018-09-27T06:44:32.128Z,5.83
2018-09-27T06:47:03.195Z,6.43
2018-09-27T06:49:33.596Z,6.10
2018-09-27T06:52:03.983Z,5.63
2018-09-27T06:54:33.796Z,5.40
2018-09-27T06:57:05.016Z,5.87
2018-09-27T06:59:34.368Z,7.03
2018-09-27T07:02:04.509Z,6.10
2018-09-27T07:04:34.203Z,6.70
2018-09-27T07:07:04.002Z,6.20
2018-09-27T07:09:34.137Z,6.53
2018-09-27T07:12:02.701Z,5.87
2018-09-27T07:14:31.439Z,5.90
2018-09-27T07:17:00.190Z,6.63
2018-09-27T07:22:13.379Z,7.43
2018-09-27T07:24:42.974Z,5.13
2018-09-27T07:27:12.626Z,5.70
2018-09-27T07:29:42.168Z,5.57
2018-09-27T07:32:10.649Z,5.33
2018-09-27T07:34:39.944Z,5.57
2018-09-27T07:37:08.742Z,5.63
2018-09-27T07:39:38.428Z,6.73
2018-09-27T07:42:08.838Z,6.90
2018-09-27T07:44:39.670Z,6.17
2018-09-27T07:47:09.070Z,5.67
2018-09-27T07:49:37.668Z,5.80
2018-09-27T07:52:07.510Z,5.60
2018-09-27T07:54:37.280Z,6.50
2018-09-27T07:57:07.277Z,6.80
2018-09-27T07:59:37.334Z,6.87
2018-09-27T08:02:08.448Z,5.83
2018-09-27T08:04:39.196Z,6.65
2018-09-27T08:07:08.601Z,5.80
2018-09-27T08:09:41.281Z,5.00
2018-09-27T08:12:14.645Z,6.50
2018-09-27T08:14:44.289Z,5.20
2018-09-27T08:17:14.395Z,6.33
2018-09-27T08:19:44.604Z,6.40
2018-09-27T08:22:13.091Z,5.60
2018-09-27T08:24:42.181Z,6.17
2018-09-27T08:27:12.106Z,5.63
2018-09-27T08:29:42.555Z,5.80
2018-09-27T08:32:15.809Z,5.90
2018-09-27T08:34:45.893Z,5.80
2018-09-27T08:37:16.028Z,6.60
2018-09-27T08:39:44.513Z,7.20
2018-09-27T08:42:33.437Z,6.10
2018-09-27T08:45:03.998Z,5.70
2018-09-27T08:47:34.704Z,7.03
2018-09-27T08:50:04.550Z,7.10
2018-09-27T08:52:34.143Z,6.30
2018-09-27T08:55:03.264Z,6.47
2018-09-27T08:57:33.739Z,6.63
2018-09-27T09:00:02.416Z,7.30
2018-09-27T09:02:32.366Z,5.80
2018-09-27T09:05:01.673Z,6.70
2018-09-27T09:07:30.500Z,6.23
2018-09-27T09:09:59.268Z,6.47
2018-09-27T09:12:29.053Z,6.75
2018-09-27T09:14:59.134Z,6.50
2018-09-27T09:17:30.280Z,7.07
2018-09-27T09:19:59.491Z,6.33
2018-09-27T09:22:33.080Z,6.40
2018-09-27T09:25:02.393Z,5.63
2018-09-27T09:27:33.782Z,5.53
2018-09-27T09:30:03.523Z,6.17
2018-09-27T09:32:34.555Z,6.40
2018-09-27T09:35:05.662Z,6.00
2018-09-27T09:37:36.929Z,6.10
2018-09-27T09:40:06.925Z,5.67
2018-09-27T09:42:37.064Z,5.90
2018-09-27T09:45:06.213Z,5.70
2018-09-27T09:47:34.758Z,5.60
2018-09-27T09:50:06.061Z,6.87
2018-09-27T09:52:35.710Z,5.70
2018-09-27T09:55:05.788Z,5.80
2018-09-27T09:57:39.194Z,6.07
2018-09-27T10:00:08.832Z,5.87
2018-09-27T10:02:41.287Z,6.17
2018-09-27T10:05:11.649Z,5.43
2018-09-27T10:07:41.016Z,5.90
2018-09-27T10:10:11.692Z,6.43
2018-09-27T10:12:41.764Z,6.67
2018-09-27T10:15:10.860Z,6.00
2018-09-27T10:17:40.624Z,6.10
2018-09-27T10:20:09.761Z,5.70
2018-09-27T10:22:38.341Z,4.90
2018-09-27T10:25:08.786Z,5.20
2018-09-27T10:27:48.424Z,4.97
2018-09-27T10:30:51.048Z,4.43
2018-09-27T10:33:22.108Z,4.43
2018-09-27T10:35:51.811Z,4.83
2018-09-27T10:38:23.443Z,4.57
2018-09-27T10:40:52.235Z,4.33
2018-09-27T10:43:22.895Z,5.03
2018-09-27T10:45:52.539Z,4.50
2018-09-27T10:48:21.941Z,5.10
2018-09-27T10:50:50.948Z,4.60
2018-09-27T10:53:21.144Z,5.80
2018-09-27T10:55:53.128Z,4.12
2018-09-27T10:58:22.496Z,5.00
2018-09-27T11:00:51.388Z,4.50
2018-09-27T11:03:20.499Z,4.00
2018-09-27T11:05:50.881Z,3.53
2018-09-27T11:08:24.519Z,5.23
2018-09-27T11:10:53.557Z,3.90
2018-09-27T11:13:22.191Z,3.70
2018-09-27T11:15:51.363Z,4.30
2018-09-27T11:18:20.818Z,3.70
2018-09-27T11:20:49.340Z,4.30
2018-09-27T11:23:18.517Z,4.00
2018-09-27T11:25:52.119Z,4.00
2018-09-27T11:28:23.659Z,3.90
2018-09-27T11:30:57.999Z,3.07
2018-09-27T11:33:27.251Z,4.30
2018-09-27T11:35:56.567Z,3.40
2018-09-27T11:38:29.468Z,3.50
2018-09-27T11:40:59.426Z,3.73
2018-09-27T11:43:29.481Z,3.80
2018-09-27T11:46:02.150Z,3.40
2018-09-27T11:48:35.622Z,2.93
2018-09-27T11:51:05.490Z,2.93
2018-09-27T11:53:34.017Z,3.40
2018-09-27T11:56:03.400Z,2.70
2018-09-27T11:58:35.242Z,3.00
2018-09-27T12:01:05.992Z,3.40
2018-09-27T12:03:35.024Z,3.33
2018-09-27T12:06:04.410Z,3.17
2018-09-27T12:08:34.121Z,3.23
2018-09-27T12:11:04.658Z,3.07
2018-09-27T12:13:33.823Z,3.27
2018-09-27T12:16:04.180Z,2.90
2018-09-27T12:18:33.192Z,2.70
2018-09-27T12:21:03.842Z,3.20
2018-09-27T12:23:34.271Z,2.73
2018-09-27T12:26:03.342Z,3.10
2018-09-27T12:28:32.156Z,2.90
2018-09-27T12:31:01.062Z,2.90
2018-09-27T12:33:31.615Z,2.90
2018-09-27T12:36:02.016Z,3.10
2018-09-27T12:38:32.894Z,3.53
2018-09-27T12:41:01.404Z,2.77
2018-09-27T12:43:30.037Z,3.50
2018-09-27T12:45:59.005Z,4.03
2018-09-27T12:48:28.707Z,4.97
2018-09-27T12:50:58.013Z,5.30
2018-09-27T12:53:27.733Z,4.80
2018-09-27T12:55:56.837Z,5.40
2018-09-27T12:58:26.231Z,5.47
2018-09-27T13:00:56.873Z,6.07
2018-09-27T13:03:26.574Z,5.27
2018-09-27T13:05:56.937Z,5.83
2018-09-27T13:08:26.056Z,5.40
2018-09-27T13:10:58.469Z,6.70
2018-09-27T13:13:30.206Z,6.70
2018-09-27T13:16:00.206Z,6.33
2018-09-27T13:18:30.693Z,6.60
2018-09-27T13:20:59.585Z,5.30
2018-09-27T13:23:29.184Z,5.60
2018-09-27T13:25:58.523Z,6.50
2018-09-27T13:28:28.817Z,6.40
2018-09-27T13:30:57.626Z,5.90
2018-09-27T13:33:27.680Z,6.40
2018-09-27T13:35:57.423Z,5.97
2018-09-27T13:38:28.448Z,6.00
2018-09-27T13:40:57.419Z,6.10
2018-09-27T13:43:26.244Z,5.67
2018-09-27T13:45:55.912Z,6.60
2018-09-27T13:48:26.169Z,6.27
2018-09-27T13:50:57.170Z,7.10
2018-09-27T13:53:26.216Z,6.97
2018-09-27T13:55:56.160Z,7.43
2018-09-27T13:58:25.027Z,6.90
2018-09-27T14:00:55.446Z,7.10
2018-09-27T14:03:26.475Z,5.90
2018-09-27T14:05:56.372Z,5.40
2018-09-27T14:08:25.963Z,6.40
2018-09-27T14:10:55.394Z,6.80
2018-09-27T14:13:26.424Z,7.10
2018-09-27T14:15:56.951Z,6.53
2018-09-27T14:18:25.716Z,5.60
2018-09-27T14:20:55.085Z,7.20
2018-09-27T14:23:24.272Z,6.00
2018-09-27T14:25:54.320Z,7.43
2018-09-27T14:28:25.346Z,6.30
2018-09-27T14:30:55.448Z,5.77
2018-09-27T14:33:26.079Z,5.80
2018-09-27T14:35:56.099Z,5.90
2018-09-27T14:38:26.067Z,5.13
2018-09-27T14:40:55.864Z,7.07
2018-09-27T14:43:26.271Z,6.50
2018-09-27T14:45:55.810Z,6.63
2018-09-27T14:48:24.500Z,5.40
2018-09-27T14:50:54.943Z,5.80
2018-09-27T14:53:25.137Z,6.87
2018-09-27T14:55:53.936Z,5.93
2018-09-27T14:58:24.431Z,7.10
2018-09-27T15:00:55.075Z,7.00
2018-09-27T15:03:24.104Z,6.40
2018-09-27T15:05:53.276Z,6.80
2018-09-27T15:08:24.317Z,7.43
2018-09-27T15:10:53.890Z,7.33
2018-09-27T15:13:25.083Z,7.30
2018-09-27T15:15:54.157Z,7.47
2018-09-27T15:18:22.920Z,6.53
2018-09-27T15:20:53.209Z,7.30
2018-09-27T15:23:23.131Z,6.60
2018-09-27T15:25:51.713Z,6.63
2018-09-27T15:28:20.759Z,6.80
2018-09-27T15:30:51.517Z,7.57
2018-09-27T15:33:22.008Z,8.67
2018-09-27T15:35:51.455Z,7.93
2018-09-27T15:38:23.524Z,6.50
2018-09-27T15:40:53.643Z,7.57
2018-09-27T15:43:22.816Z,7.57
2018-09-27T15:45:53.132Z,7.10
2018-09-27T15:48:22.204Z,7.30
2018-09-27T15:50:51.902Z,7.57
2018-09-27T15:53:21.335Z,7.40
2018-09-27T15:55:50.636Z,6.90
2018-09-27T15:58:21.255Z,6.90
2018-09-27T16:00:51.179Z,6.30
2018-09-27T16:03:20.602Z,6.47
2018-09-27T16:05:49.327Z,6.77
2018-09-27T16:08:19.771Z,7.93
2018-09-27T16:10:49.384Z,8.17
2018-09-27T16:13:17.916Z,7.57
2018-09-27T16:15:48.364Z,7.13
2018-09-27T16:18:18.124Z,7.80
2018-09-27T16:20:47.998Z,6.33
2018-09-27T16:23:16.858Z,6.00
2018-09-27T16:25:46.468Z,5.40
2018-09-27T16:28:15.860Z,5.83
2018-09-27T16:30:44.844Z,4.90
2018-09-27T16:33:14.367Z,5.33
2018-09-27T16:35:44.943Z,5.20
2018-09-27T16:38:16.926Z,5.00
2018-09-27T16:40:45.939Z,4.50
2018-09-27T16:43:15.974Z,4.90
2018-09-27T16:45:45.704Z,4.20
2018-09-27T16:48:15.765Z,4.00
2018-09-27T16:50:45.468Z,4.23
2018-09-27T16:53:16.359Z,4.20
2018-09-27T16:55:45.918Z,4.00
2018-09-27T16:58:17.920Z,3.80
2018-09-27T17:00:46.973Z,4.10
2018-09-27T17:03:17.009Z,4.53
2018-09-27T17:05:45.797Z,4.63
2018-09-27T17:08:14.857Z,3.73
2018-09-27T17:10:44.186Z,3.67
2018-09-27T17:13:12.930Z,4.20
2018-09-27T17:15:43.291Z,3.47
2018-09-27T17:18:12.401Z,3.70
2018-09-27T17:20:41.557Z,4.20
2018-09-27T17:23:14.064Z,4.90
2018-09-27T17:25:43.205Z,4.73
2018-09-27T17:28:12.699Z,4.40
2018-09-27T17:30:42.246Z,4.30
2018-09-27T17:33:11.253Z,4.20
2018-09-27T17:35:41.492Z,4.50
2018-09-27T17:38:13.083Z,4.13
2018-09-27T17:40:41.692Z,4.20
2018-09-27T17:43:10.984Z,3.60
2018-09-27T17:45:41.522Z,3.60
2018-09-27T17:48:11.593Z,3.10
2018-09-27T17:50:40.825Z,4.00
2018-09-27T17:53:10.807Z,3.57
2018-09-27T17:55:40.281Z,3.70
2018-09-27T17:58:10.738Z,5.10
2018-09-27T18:00:39.497Z,3.90
2018-09-27T18:03:08.063Z,3.77
2018-09-27T18:05:37.090Z,3.90
2018-09-27T18:08:07.032Z,4.30
2018-09-27T18:10:36.459Z,3.87
2018-09-27T18:13:06.786Z,4.10
2018-09-27T18:15:36.297Z,3.27
2018-09-27T18:18:06.862Z,4.10
2018-09-27T18:20:35.979Z,4.67
2018-09-27T18:23:06.047Z,3.97
2018-09-27T18:25:35.536Z,4.50
2018-09-27T18:28:06.250Z,4.47
2018-09-27T18:30:34.831Z,5.20
2018-09-27T18:33:04.295Z,4.50
2018-09-27T18:35:34.888Z,4.40
2018-09-27T18:38:04.175Z,3.87
2018-09-27T18:40:35.013Z,4.10
2018-09-27T18:43:05.177Z,4.00
2018-09-27T18:45:35.830Z,4.03
2018-09-27T18:48:05.529Z,3.87
2018-09-27T18:50:34.301Z,3.80
2018-09-27T18:53:06.037Z,3.70
2018-09-27T18:55:34.872Z,3.43
2018-09-27T18:58:07.803Z,4.10
2018-09-27T19:00:37.609Z,3.50
2018-09-27T19:03:06.939Z,3.40
2018-09-27T19:05:35.783Z,4.60
2018-09-27T19:08:05.778Z,4.87
2018-09-27T19:10:36.088Z,5.30
2018-09-27T19:13:04.888Z,5.60
2018-09-27T19:15:35.670Z,5.67
2018-09-27T19:18:05.401Z,5.77
2018-09-27T19:20:37.764Z,6.80
2018-09-27T19:23:08.164Z,6.30
2018-09-27T19:25:38.472Z,5.33
2018-09-27T19:28:07.244Z,5.70
2018-09-27T19:30:37.480Z,5.83
2018-09-27T19:33:06.613Z,5.50
2018-09-27T19:35:35.715Z,6.33
2018-09-27T19:38:04.957Z,4.90
2018-09-27T19:40:34.052Z,5.10
2018-09-27T19:43:03.921Z,6.47
2018-09-27T19:45:34.511Z,8.47
2018-09-27T19:48:05.068Z,7.00
2018-09-27T19:50:35.519Z,5.23
2018-09-27T19:59:53.757Z,6.27
2018-09-27T20:02:23.703Z,6.13
2018-09-27T20:04:54.580Z,4.90
2018-09-27T20:07:25.152Z,5.03
2018-09-27T20:09:54.668Z,5.53
2018-09-27T20:12:24.567Z,5.13
2018-09-27T20:14:54.358Z,5.50
2018-09-27T20:17:24.648Z,5.73
2018-09-27T20:19:53.767Z,5.20
2018-09-27T20:22:23.646Z,5.10
2018-09-27T20:24:53.422Z,4.70
2018-09-27T20:27:23.191Z,4.90
2018-09-27T20:29:52.072Z,5.10
2018-09-27T20:32:21.145Z,5.20
2018-09-27T20:34:51.663Z,5.03
2018-09-27T20:37:22.862Z,4.00
2018-09-27T20:39:52.497Z,4.47
2018-09-27T20:42:22.744Z,4.93
2018-09-27T20:44:52.592Z,4.90
2018-09-27T20:47:22.920Z,4.70
2018-09-27T20:49:51.985Z,4.03
2018-09-27T20:52:23.129Z,5.53
2018-09-27T20:54:52.430Z,5.27
2018-09-27T20:57:23.232Z,5.30
2018-09-27T20:59:53.979Z,4.87
2018-09-27T21:02:23.906Z,4.83
2018-09-27T21:04:52.896Z,4.70
2018-09-27T21:07:22.296Z,4.60
2018-09-27T21:09:53.511Z,5.13
2018-09-27T21:12:24.842Z,5.37
2018-09-27T21:14:55.295Z,4.80
2018-09-27T21:17:24.761Z,5.17
2018-09-27T21:19:54.194Z,5.30
2018-09-27T21:22:23.261Z,5.47
2018-09-27T21:24:54.430Z,5.87
2018-09-27T21:27:24.112Z,4.53
2018-09-27T21:29:53.576Z,5.00
2018-09-27T21:32:29.736Z,5.40
2018-09-27T21:35:00.998Z,4.90
2018-09-27T21:37:29.656Z,4.53
2018-09-27T21:40:00.196Z,6.00
2018-09-27T21:42:30.433Z,4.60
2018-09-27T21:45:00.043Z,4.93
2018-09-27T21:47:29.514Z,5.17
2018-09-27T21:49:58.658Z,5.50
2018-09-27T21:52:27.954Z,4.77
2018-09-27T21:54:57.427Z,5.80
2018-09-27T21:57:27.557Z,5.90
2018-09-27T21:59:57.502Z,5.80
2018-09-27T22:02:27.240Z,6.70
2018-09-27T22:04:56.200Z,6.60
2018-09-27T22:07:26.457Z,7.53
2018-09-27T22:09:58.108Z,6.80
2018-09-27T22:12:27.912Z,5.80
2018-09-27T22:14:57.866Z,6.07
2018-09-27T22:17:30.018Z,5.80
2018-09-27T22:19:59.361Z,6.10
2018-09-27T22:22:29.878Z,6.60
2018-09-27T22:25:00.828Z,6.57
2018-09-27T22:27:29.827Z,5.90
2018-09-27T22:29:59.986Z,6.40
2018-09-27T22:32:29.711Z,7.50
2018-09-27T22:35:01.534Z,6.30
2018-09-27T22:37:30.699Z,6.80
2018-09-27T22:40:00.839Z,6.97
2018-09-27T22:42:30.167Z,7.67
2018-09-27T22:45:00.244Z,6.47
2018-09-27T22:47:29.236Z,5.80
2018-09-27T22:49:58.022Z,6.60
2018-09-27T22:52:28.526Z,6.87
2018-09-27T22:54:57.646Z,7.03
2018-09-27T22:57:27.231Z,6.93
2018-09-27T22:59:57.642Z,7.00
2018-09-27T23:02:26.381Z,7.00
2018-09-27T23:04:56.360Z,6.70
2018-09-27T23:07:28.058Z,7.37
2018-09-27T23:09:57.520Z,7.00
2018-09-27T23:12:26.438Z,7.23
2018-09-27T23:14:55.424Z,6.87
2018-09-27T23:17:27.693Z,5.80
2018-09-27T23:19:57.072Z,7.23
2018-09-27T23:22:26.607Z,5.90
2018-09-27T23:24:57.951Z,6.80
2018-09-27T23:27:27.832Z,7.40
2018-09-27T23:29:56.889Z,7.93
2018-09-27T23:32:27.893Z,6.77
2018-09-27T23:34:57.454Z,8.00
2018-09-27T23:37:26.535Z,7.00
2018-09-27T23:39:55.577Z,7.30
2018-09-27T23:42:24.099Z,7.47
2018-09-27T23:44:56.763Z,7.27
2018-09-27T23:47:26.267Z,6.63
2018-09-27T23:49:55.492Z,7.77
2018-09-27T23:52:41.570Z,6.90
2018-09-27T23:55:11.569Z,7.40
2018-09-27T23:57:41.009Z,6.93
